Time;durP1;ratioP1;P1;durP2;ratioP2;P2;SDS_P1;SDS_P2;PMS_P1;PMS_P2;Temp;Humidity;BMP_temperature;BMP_pressure;BME280_temperature;BME280_humidity;BME280_pressure;Samples;Min_cycle;Max_cycle;Signal;HPM_P1;HPM_P2
2022/04/12 00:01:06;;;;;;;6.25;2.33;;;;;;;3.95;69.02;99676.41;1718117;83;21277;-69
2022/04/12 00:03:32;;;;;;;5.85;2.27;;;;;;;3.95;68.48;99675.11;1717924;83;20986;-69
2022/04/12 00:06:00;;;;;;;5.08;2.20;;;;;;;3.95;68.63;99669.05;1727664;82;21010;-70
2022/04/12 00:08:27;;;;;;;7.67;2.95;;;;;;;3.93;68.62;99664.30;1747778;82;21573;-69
2022/04/12 00:10:55;;;;;;;7.87;2.85;;;;;;;3.92;68.55;99668.66;1747871;82;21033;-70
2022/04/12 00:13:22;;;;;;;5.47;2.42;;;;;;;3.93;68.64;99669.52;1748093;82;21294;-70
2022/04/12 00:15:49;;;;;;;5.53;2.77;;;;;;;3.92;68.09;99665.20;1747818;82;21092;-69
2022/04/12 00:21:02;;;;;;;8.00;2.80;;;;;;;3.93;68.51;99669.09;1747956;81;21017;-70
2022/04/12 00:23:29;;;;;;;7.05;2.40;;;;;;;3.93;68.52;99659.98;1747944;82;21097;-71
2022/04/12 00:25:57;;;;;;;6.55;2.30;;;;;;;3.95;68.56;99658.63;1747715;82;21546;-69
2022/04/12 00:28:24;;;;;;;9.60;2.50;;;;;;;3.95;68.84;99650.36;1747975;82;21362;-71
2022/04/12 00:30:51;;;;;;;6.08;2.27;;;;;;;3.97;69.21;99660.77;1747784;82;21037;-69
2022/04/12 00:33:18;;;;;;;5.47;2.30;;;;;;;3.97;69.25;99656.86;1747904;82;21085;-70
2022/04/12 00:35:47;;;;;;;5.67;2.33;;;;;;;3.98;69.12;99661.20;1747979;82;21017;-70
2022/04/12 00:38:17;;;;;;;7.78;2.40;;;;;;;3.99;69.21;99653.34;1747965;82;21245;-70
2022/04/12 00:40:42;;;;;;;9.33;2.83;;;;;;;3.97;69.62;99657.71;1747492;81;21124;-69
2022/04/12 00:43:08;;;;;;;6.65;2.40;;;;;;;3.96;70.24;99657.31;1748003;82;21025;-71
2022/04/12 00:45:35;;;;;;;10.00;2.85;;;;;;;3.98;69.64;99666.41;1747973;82;21034;-70
2022/04/12 00:48:04;;;;;;;6.58;2.47;;;;;;;3.98;69.99;99665.11;1747816;81;21041;-70
2022/04/12 00:50:31;;;;;;;8.75;2.60;;;;;;;3.97;69.71;99665.98;1747941;82;21154;-70
2022/04/12 00:52:57;;;;;;;6.58;2.33;;;;;;;3.97;69.46;99657.71;1747616;82;21022;-71
2022/04/12 00:55:25;;;;;;;5.17;2.50;;;;;;;3.96;69.83;99645.59;1747793;82;21014;-69
2022/04/12 00:57:52;;;;;;;8.93;2.30;;;;;;;3.97;69.87;99644.69;1747902;82;21014;-69
2022/04/12 01:00:19;;;;;;;5.95;2.40;;;;;;;3.98;69.50;99638.61;1747803;82;21567;-69
2022/04/12 01:02:46;;;;;;;9.28;2.50;;;;;;;3.99;69.28;99648.13;1747748;82;21172;-69
2022/04/12 01:05:13;;;;;;;8.15;2.83;;;;;;;3.99;69.75;99646.83;1747573;82;21049;-70
2022/04/12 01:07:40;;;;;;;7.05;2.45;;;;;;;3.99;70.05;99653.34;1747824;82;21026;-70
2022/04/12 01:10:08;;;;;;;6.22;2.85;;;;;;;4.02;69.62;99651.56;1747783;82;21092;-71
2022/04/12 01:12:38;;;;;;;5.22;2.70;;;;;;;3.99;69.51;99650.73;1747962;82;21057;-70
2022/04/12 01:15:17;;;;;;;6.70;2.77;;;;;;;3.99;69.64;99653.34;1721169;82;21218;-70
2022/04/12 01:17:45;;;;;;;8.83;2.90;;;;;;;3.98;69.62;99644.27;1747683;82;21018;-70
2022/04/12 01:20:15;;;;;;;4.78;2.12;;;;;;;3.97;70.31;99642.08;1747988;82;21720;-70
2022/04/12 01:23:20;;;;;;;6.95;2.52;;;;;;;3.96;70.09;99637.77;1747828;81;21553;-70
2022/04/12 01:25:47;;;;;;;6.92;2.90;;;;;;;3.97;70.35;99636.02;1720753;82;21025;-69
2022/04/12 01:28:14;;;;;;;9.93;2.75;;;;;;;3.94;70.68;99629.12;1747824;82;21297;-70
2022/04/12 01:30:40;;;;;;;6.25;2.52;;;;;;;3.94;70.01;99626.52;1747717;82;21045;-70
2022/04/12 01:33:08;;;;;;;7.55;2.92;;;;;;;3.92;70.06;99629.58;1747969;82;21493;-71
2022/04/12 01:35:36;;;;;;;7.12;2.50;;;;;;;3.93;70.11;99632.63;1747533;82;21065;-70
2022/04/12 01:38:03;;;;;;;6.72;2.90;;;;;;;3.92;69.68;99624.38;1747897;82;21025;-69
2022/04/12 01:40:30;;;;;;;6.03;2.50;;;;;;;3.92;69.47;99630.89;1748021;81;21176;-70
2022/04/12 01:42:57;;;;;;;8.75;3.00;;;;;;;3.92;69.84;99625.67;1745677;81;21005;-70
2022/04/12 01:45:24;;;;;;;7.67;2.62;;;;;;;3.94;70.02;99623.91;1745166;82;21038;-71
2022/04/12 01:47:51;;;;;;;7.42;2.90;;;;;;;3.93;69.97;99611.78;1744981;82;21735;-69
2022/04/12 01:50:18;;;;;;;9.78;3.12;;;;;;;3.92;70.04;99613.95;1737410;82;21033;-69
2022/04/12 01:52:46;;;;;;;6.80;2.83;;;;;;;3.92;70.10;99607.44;1715531;82;21003;-70
2022/04/12 01:55:14;;;;;;;8.80;2.87;;;;;;;3.92;70.96;99607.89;1715266;83;21100;-70
2022/04/12 01:57:41;;;;;;;7.08;2.77;;;;;;;3.91;70.89;99605.73;1715310;81;21546;-70
2022/04/12 02:00:10;;;;;;;6.80;2.40;;;;;;;3.91;70.26;99604.44;1715426;81;21621;-70
2022/04/12 02:02:41;;;;;;;4.65;2.30;;;;;;;3.90;70.93;99603.15;1715662;83;21045;-71
2022/04/12 02:05:08;;;;;;;7.55;2.75;;;;;;;3.87;70.50;99588.44;1715477;83;21268;-70
2022/04/12 02:07:35;;;;;;;5.62;2.62;;;;;;;3.86;70.93;99581.49;1715422;83;21022;-71
2022/04/12 02:10:05;;;;;;;6.35;2.50;;;;;;;3.86;70.78;99588.00;1715511;83;21042;-70
2022/04/12 02:12:32;;;;;;;7.03;2.72;;;;;;;3.84;70.82;99587.17;1715519;83;21022;-71
2022/04/12 02:15:00;;;;;;;10.45;2.70;;;;;;;3.82;70.71;99587.67;1715482;83;21037;-70
2022/04/12 02:17:27;;;;;;;6.28;2.75;;;;;;;3.81;70.83;99584.63;1715488;83;21230;-70
2022/04/12 02:19:54;;;;;;;8.00;2.42;;;;;;;3.78;71.12;99585.55;1715328;83;21049;-69
2022/04/12 02:22:20;;;;;;;6.95;2.55;;;;;;;3.75;70.45;99585.62;1715282;83;21037;-71
2022/04/12 02:24:47;;;;;;;7.42;2.50;;;;;;;3.76;70.64;99587.77;1715448;83;21158;-70
2022/04/12 02:27:14;;;;;;;5.95;2.37;;;;;;;3.74;70.74;99580.42;1715341;83;21046;-69
2022/04/12 02:29:41;;;;;;;6.42;2.37;;;;;;;3.73;70.96;99582.63;1715572;81;21328;-69
2022/04/12 02:32:08;;;;;;;9.20;3.12;;;;;;;3.69;70.88;99571.39;1715362;81;21592;-69
2022/04/12 02:34:35;;;;;;;7.10;2.30;;;;;;;3.68;71.26;99571.41;1715431;83;21081;-70
2022/04/12 02:37:04;;;;;;;5.45;2.37;;;;;;;3.68;71.97;99575.31;1715464;83;21045;-70
2022/04/12 02:39:31;;;;;;;9.18;2.85;;;;;;;3.65;72.50;99584.50;1715528;81;21050;-70
2022/04/12 02:41:58;;;;;;;6.75;2.60;;;;;;;3.65;72.18;99587.95;1715182;81;21147;-70
2022/04/12 02:44:28;;;;;;;7.25;2.42;;;;;;;3.64;71.95;99588.00;1715432;83;21049;-70
2022/04/12 02:46:54;;;;;;;6.37;2.90;;;;;;;3.63;72.13;99588.86;1715553;83;21495;-70
2022/04/12 02:49:22;;;;;;;6.53;2.83;;;;;;;3.61;72.25;99585.42;1715164;83;21640;-70
2022/04/12 02:51:50;;;;;;;7.87;2.98;;;;;;;3.60;72.27;99586.33;1741849;82;21033;-70
2022/04/12 02:54:18;;;;;;;6.97;2.70;;;;;;;3.57;72.34;99581.58;1745124;82;21184;-70
2022/04/12 02:56:44;;;;;;;7.65;2.45;;;;;;;3.56;72.33;99588.11;1745017;82;22035;-70
2022/04/12 02:59:11;;;;;;;6.65;2.67;;;;;;;3.54;71.73;99581.65;1745203;82;21522;-69
2022/04/12 03:01:38;;;;;;;8.18;2.60;;;;;;;3.54;71.78;99580.34;1745275;82;21014;-70
2022/04/12 03:04:04;;;;;;;6.80;2.72;;;;;;;3.54;72.13;99583.37;1745292;82;21034;-69
2022/04/12 03:06:31;;;;;;;8.43;2.67;;;;;;;3.52;72.09;99583.41;1745355;80;21924;-69
2022/04/12 03:08:59;;;;;;;7.17;2.60;;;;;;;3.52;71.84;99582.53;1745111;82;21537;-69
2022/04/12 03:11:27;;;;;;;8.28;2.80;;;;;;;3.48;71.14;99577.84;1745098;82;21065;-69
2022/04/12 03:13:55;;;;;;;7.10;2.95;;;;;;;3.49;71.74;99583.89;1745046;82;21073;-71
2022/04/12 03:16:22;;;;;;;7.72;3.12;;;;;;;3.48;71.60;99581.74;1745211;82;21058;-70
2022/04/12 03:18:50;;;;;;;9.13;2.90;;;;;;;3.48;71.75;99585.65;1744927;82;22065;-70
2022/04/12 03:21:16;;;;;;;6.08;2.62;;;;;;;3.44;71.64;99581.37;1744995;82;21058;-70
2022/04/12 03:23:44;;;;;;;6.35;2.83;;;;;;;3.44;71.56;99585.27;1745272;82;21042;-71
2022/04/12 03:26:11;;;;;;;8.33;2.60;;;;;;;3.43;71.80;99583.57;1745006;82;21129;-70
2022/04/12 03:28:37;;;;;;;12.43;3.17;;;;;;;3.41;71.76;99581.43;1745321;82;21060;-70
2022/04/12 03:31:04;;;;;;;6.95;2.55;;;;;;;3.41;71.07;99580.13;1745432;82;21272;-69
2022/04/12 03:33:32;;;;;;;6.70;2.90;;;;;;;3.42;71.81;99580.53;1745259;82;21014;-69
2022/04/12 03:35:59;;;;;;;5.72;3.00;;;;;;;3.41;71.52;99578.83;1745245;82;21037;-70
2022/04/12 03:38:25;;;;;;;9.03;2.80;;;;;;;3.40;70.94;99574.48;1745434;82;21181;-70
2022/04/12 03:40:52;;;;;;;11.20;2.58;;;;;;;3.41;71.53;99575.38;1745464;82;21009;-70
2022/04/12 03:43:19;;;;;;;6.15;2.33;;;;;;;3.38;71.64;99567.14;1745316;81;21287;-69
2022/04/12 03:45:45;;;;;;;4.45;2.40;;;;;;;3.37;71.33;99581.06;1745435;82;21045;-70
2022/04/12 03:48:12;;;;;;;7.03;2.83;;;;;;;3.35;71.00;99577.62;1745139;82;21578;-71
2022/04/12 03:50:39;;;;;;;6.15;2.65;;;;;;;3.36;71.29;99588.47;1745352;82;21644;-71
2022/04/12 03:53:07;;;;;;;11.68;3.00;;;;;;;3.36;71.01;99587.16;1745445;82;21018;-70
2022/04/12 03:55:39;;;;;;;10.53;3.02;;;;;;;3.38;71.13;99604.89;1745169;82;21239;-70
2022/04/12 03:58:08;;;;;;;7.67;2.77;;;;;;;3.38;70.83;99599.68;1745093;82;21025;-71
2022/04/12 04:00:36;;;;;;;6.45;2.60;;;;;;;3.40;70.99;99602.27;1745521;82;21073;-69
2022/04/12 04:03:03;;;;;;;8.88;3.08;;;;;;;3.41;71.04;99599.66;1745250;82;21033;-70
2022/04/12 04:05:31;;;;;;;5.83;2.92;;;;;;;3.40;70.83;99603.13;1745155;82;21036;-71
2022/04/12 04:07:57;;;;;;;10.65;3.10;;;;;;;3.41;70.94;99604.86;1745430;82;21146;-71
2022/04/12 04:10:25;;;;;;;9.78;3.05;;;;;;;3.43;70.79;99600.49;1745158;82;21017;-70
2022/04/12 04:12:53;;;;;;;8.13;3.10;;;;;;;3.45;70.83;99610.86;1745277;82;21054;-70
2022/04/12 04:15:20;;;;;;;4.60;2.47;;;;;;;3.48;70.77;99611.68;1745241;82;21514;-69
2022/04/12 04:17:48;;;;;;;7.55;2.87;;;;;;;3.49;70.93;99617.73;1745343;82;21258;-71
2022/04/12 04:20:18;;;;;;;6.15;2.45;;;;;;;3.50;71.16;99616.42;1745151;82;21161;-69
2022/04/12 04:22:45;;;;;;;5.35;2.67;;;;;;;3.54;71.44;99613.31;1745458;82;21089;-71
2022/04/12 04:25:14;;;;;;;8.43;2.22;;;;;;;3.55;71.34;99613.30;1745233;82;21020;-71
2022/04/12 04:27:43;;;;;;;9.27;3.33;;;;;;;3.58;70.92;99614.98;1745855;82;21037;-69
2022/04/12 04:30:12;;;;;;;6.53;2.00;;;;;;;3.60;70.73;99623.63;1745273;82;21069;-70
2022/04/12 04:32:39;;;;;;;6.70;2.55;;;;;;;3.63;70.15;99637.04;1745320;82;21140;-69
2022/04/12 04:35:09;;;;;;;4.97;2.17;;;;;;;3.64;70.15;99634.87;1745042;82;21026;-70
2022/04/12 04:37:47;;;;;;;10.58;2.50;;;;;;;3.66;70.15;99641.77;1745284;82;21057;-70
2022/04/12 04:40:17;;;;;;;6.47;2.50;;;;;;;3.71;70.68;99636.48;1745418;82;21511;-70
2022/04/12 04:42:44;;;;;;;10.95;3.08;;;;;;;3.74;70.16;99633.36;1744981;81;21077;-72
2022/04/12 04:45:14;;;;;;;5.30;2.45;;;;;;;3.78;70.12;99636.79;1747758;82;21608;-70
2022/04/12 04:47:59;;;;;;;6.65;2.40;;;;;;;3.81;70.46;99635.42;1747831;82;21506;-71
2022/04/12 04:50:32;;;;;;;7.58;2.40;;;;;;;3.84;70.65;99631.91;1741773;82;21064;-70
2022/04/12 04:53:06;;;;;;;10.48;2.70;;;;;;;3.86;70.25;99636.20;1748034;82;21065;-70
2022/04/12 04:55:35;;;;;;;7.20;2.65;;;;;;;3.90;69.87;99631.80;1747940;82;21057;-70
2022/04/12 04:58:02;;;;;;;6.65;2.75;;;;;;;3.90;70.05;99624.84;1745469;82;21099;-71
2022/04/12 05:00:31;;;;;;;9.05;2.77;;;;;;;3.97;69.15;99624.29;1747904;81;21092;-70
2022/04/12 05:02:58;;;;;;;7.37;2.58;;;;;;;3.99;68.80;99624.67;1747922;82;21010;-70
2022/04/12 05:05:26;;;;;;;5.75;2.12;;;;;;;4.03;69.15;99628.55;1747986;82;21033;-69
2022/04/12 05:07:54;;;;;;;7.83;2.58;;;;;;;4.06;69.20;99629.33;1747881;82;21025;-71
2022/04/12 05:10:28;;;;;;;8.78;2.58;;;;;;;4.12;68.73;99636.20;1748160;82;21052;-70
2022/04/12 05:12:57;;;;;;;10.20;2.90;;;;;;;4.16;68.58;99633.92;1748279;81;21008;-71
2022/04/12 05:15:27;;;;;;;6.35;2.30;;;;;;;4.22;68.57;99629.05;1747671;82;20998;-71
2022/04/12 05:17:54;;;;;;;7.08;2.50;;;;;;;4.24;68.45;99629.44;1747704;82;21057;-71
2022/04/12 05:20:25;;;;;;;5.03;2.17;;;;;;;4.27;67.86;99633.28;1747715;82;21026;-71
2022/04/12 05:22:53;;;;;;;12.58;2.52;;;;;;;4.32;68.55;99632.73;1747927;82;21202;-71
2022/04/12 05:25:20;;;;;;;7.20;2.45;;;;;;;4.37;67.71;99621.80;1747693;82;20978;-70
2022/04/12 05:27:47;;;;;;;9.90;2.77;;;;;;;4.43;67.49;99616.89;1747704;82;21038;-69
2022/04/12 05:30:14;;;;;;;9.20;2.72;;;;;;;4.48;67.56;99622.02;1747691;81;21553;-71
2022/04/12 05:32:41;;;;;;;9.20;2.58;;;;;;;4.54;67.70;99619.30;1747579;82;21058;-71
2022/04/12 05:35:11;;;;;;;6.08;2.70;;;;;;;4.58;66.21;99619.20;1747652;82;22599;-71
2022/04/12 05:37:47;;;;;;;7.85;2.30;;;;;;;4.65;66.66;99618.63;1747619;82;21045;-71
2022/04/12 05:40:14;;;;;;;10.58;2.80;;;;;;;4.73;65.96;99623.22;1747931;82;21547;-70
2022/04/12 05:42:42;;;;;;;6.60;2.20;;;;;;;4.81;65.76;99617.86;1747713;81;21171;-69
2022/04/12 05:45:10;;;;;;;6.42;2.27;;;;;;;4.89;65.09;99626.81;1748105;82;21077;-70
2022/04/12 05:47:51;;;;;;;9.75;2.58;;;;;;;4.97;64.93;99630.09;1747798;82;21115;-72
2022/04/12 05:50:25;;;;;;;4.62;1.98;;;;;;;5.06;64.73;99633.80;1739906;82;21069;-70
2022/04/12 05:52:54;;;;;;;7.92;2.20;;;;;;;5.13;64.29;99630.19;1717965;83;21030;-70
2022/04/12 05:55:22;;;;;;;6.62;2.30;;;;;;;5.22;64.29;99636.50;1717866;83;21064;-70
2022/04/12 05:57:59;;;;;;;12.30;3.10;;;;;;;5.31;63.75;99637.17;1718088;83;21557;-70
2022/04/12 06:00:27;;;;;;;7.53;2.35;;;;;;;5.36;62.94;99638.80;1723062;82;21112;-69
2022/04/12 06:02:58;;;;;;;7.35;2.30;;;;;;;5.44;63.06;99642.06;1747867;82;21076;-71
2022/04/12 06:05:29;;;;;;;16.23;2.27;;;;;;;5.48;63.02;99646.78;1748019;82;21085;-71
2022/04/12 06:07:57;;;;;;;7.97;2.60;;;;;;;5.57;62.32;99640.03;1747624;81;21038;-71
2022/04/12 06:10:24;;;;;;;7.20;2.30;;;;;;;5.62;61.28;99645.99;1748258;82;21091;-69
2022/04/12 06:12:51;;;;;;;5.45;1.95;;;;;;;5.68;61.71;99645.85;1747862;82;21405;-70
2022/04/12 06:15:21;;;;;;;6.75;2.20;;;;;;;5.81;61.08;99650.77;1748020;82;21120;-71
2022/04/12 06:17:49;;;;;;;6.92;2.42;;;;;;;5.89;60.58;99650.13;1747770;82;21513;-71
2022/04/12 06:20:17;;;;;;;7.25;2.00;;;;;;;5.99;59.95;99647.71;1747802;82;21054;-70
2022/04/12 06:22:44;;;;;;;7.87;2.40;;;;;;;6.08;59.75;99646.16;1747903;81;21056;-71
2022/04/12 06:25:14;;;;;;;9.13;2.20;;;;;;;6.17;59.19;99650.75;1747839;81;21139;-70
2022/04/12 06:27:43;;;;;;;10.13;2.40;;;;;;;6.21;59.22;99638.86;1747781;82;21078;-71
2022/04/12 06:30:15;;;;;;;5.78;2.27;;;;;;;6.31;58.92;99643.39;1747681;82;21081;-71
2022/04/12 06:32:44;;;;;;;6.08;2.00;;;;;;;6.39;59.46;99645.33;1747960;82;21048;-71
2022/04/12 06:35:12;;;;;;;7.35;2.15;;;;;;;6.53;59.94;99640.16;1747849;82;21084;-70
2022/04/12 06:37:43;;;;;;;7.15;2.27;;;;;;;6.70;59.12;99639.24;1747936;81;21046;-71
2022/04/12 06:40:12;;;;;;;6.42;2.40;;;;;;;6.77;58.76;99632.08;1747843;82;21069;-71
2022/04/12 06:42:39;;;;;;;8.05;2.35;;;;;;;6.84;58.54;99629.22;1748092;82;21021;-70
2022/04/12 06:45:11;;;;;;;6.28;2.10;;;;;;;6.95;58.10;99634.14;1747627;82;21112;-70
2022/04/12 06:47:39;;;;;;;6.92;2.25;;;;;;;7.03;56.82;99629.52;1747896;82;21134;-71
2022/04/12 06:50:08;;;;;;;9.70;2.47;;;;;;;7.07;57.55;99636.84;1747663;82;21127;-70
2022/04/12 06:52:34;;;;;;;11.08;2.45;;;;;;;7.11;56.61;99627.53;1747666;82;21124;-70
2022/04/12 06:55:02;;;;;;;8.58;2.37;;;;;;;7.14;56.43;99626.58;1747882;82;21100;-71
2022/04/12 06:57:33;;;;;;;7.87;2.58;;;;;;;7.23;56.51;99631.53;1747630;82;21105;-71
2022/04/12 07:00:01;;;;;;;5.22;1.98;;;;;;;7.33;56.22;99632.09;1747849;82;21151;-71
2022/04/12 07:02:28;;;;;;;6.87;2.22;;;;;;;7.40;56.06;99632.30;1747860;82;21881;-70
2022/04/12 07:04:55;;;;;;;7.67;2.02;;;;;;;7.50;55.67;99624.98;1747846;82;21088;-71
2022/04/12 07:07:22;;;;;;;6.45;2.10;;;;;;;7.58;54.91;99629.54;1747961;82;21005;-71
2022/04/12 07:09:51;;;;;;;8.83;2.47;;;;;;;7.69;54.78;99632.67;1748173;82;21037;-70
2022/04/12 07:12:20;;;;;;;6.85;2.17;;;;;;;7.83;55.19;99630.05;1747979;82;21041;-70
2022/04/12 07:14:47;;;;;;;7.72;2.22;;;;;;;8.02;54.90;99620.63;1748052;82;21154;-70
2022/04/12 07:17:15;;;;;;;8.13;2.30;;;;;;;8.24;54.20;99632.55;1747795;82;21525;-70
2022/04/12 07:19:42;;;;;;;8.53;2.20;;;;;;;8.40;53.77;99634.20;1748151;82;20982;-71
2022/04/12 07:22:09;;;;;;;6.95;2.05;;;;;;;8.57;52.61;99626.56;1748237;82;21069;-70
2022/04/12 07:24:38;;;;;;;7.33;2.27;;;;;;;8.77;52.64;99629.77;1747904;82;21046;-71
2022/04/12 07:27:05;;;;;;;9.53;2.00;;;;;;;9.03;52.06;99622.20;1747847;82;21300;-70
2022/04/12 07:29:32;;;;;;;5.97;2.22;;;;;;;9.33;50.13;99620.59;1747769;82;20998;-71
2022/04/12 07:32:00;;;;;;;9.60;2.00;;;;;;;9.50;50.03;99608.54;1747724;82;21055;-71
2022/04/12 07:34:27;;;;;;;6.67;1.82;;;;;;;9.60;48.54;99613.83;1747819;82;21081;-71
2022/04/12 07:36:55;;;;;;;6.80;2.33;;;;;;;9.70;48.92;99608.58;1747803;82;21542;-70
2022/04/12 07:39:23;;;;;;;6.95;1.92;;;;;;;10.00;48.29;99600.30;1748097;82;21309;-70
2022/04/12 07:41:51;;;;;;;5.25;1.87;;;;;;;10.24;47.02;99595.30;1748238;82;20998;-70
2022/04/12 07:44:20;;;;;;;7.92;2.10;;;;;;;10.42;46.60;99604.63;1746350;80;21034;-71
2022/04/12 07:46:47;;;;;;;10.18;2.37;;;;;;;10.71;46.78;99588.37;1745532;82;21065;-71
2022/04/12 07:49:14;;;;;;;6.10;2.00;;;;;;;11.02;46.00;99584.31;1745287;82;21560;-70
2022/04/12 07:51:44;;;;;;;7.95;1.92;;;;;;;11.34;45.32;99593.75;1720952;82;21146;-71
2022/04/12 07:54:11;;;;;;;6.20;2.25;;;;;;;11.62;44.42;99593.70;1715872;83;21053;-70
2022/04/12 07:56:39;;;;;;;7.17;2.70;;;;;;;11.74;43.61;99587.84;1715865;83;21010;-70
2022/04/12 07:59:09;;;;;;;10.55;2.70;;;;;;;11.93;44.21;99596.55;1715537;83;21061;-71
2022/04/12 08:01:35;;;;;;;6.47;2.17;;;;;;;12.30;43.31;99599.91;1715447;83;21120;-70
2022/04/12 08:04:04;;;;;;;6.58;1.92;;;;;;;12.53;41.70;99589.45;1715544;83;21150;-71
2022/04/12 08:06:31;;;;;;;6.42;2.05;;;;;;;12.56;41.73;99600.31;1715344;83;21593;-70
2022/04/12 08:08:58;;;;;;;4.83;1.92;;;;;;;12.67;41.78;99597.95;1715507;83;21603;-70
2022/04/12 08:11:27;;;;;;;10.03;1.98;;;;;;;12.74;40.79;99594.52;1715647;83;21006;-71
2022/04/12 08:13:55;;;;;;;19.52;2.30;;;;;;;12.91;40.47;99600.22;1715680;83;21037;-72
2022/04/12 08:16:23;;;;;;;3.85;1.90;;;;;;;13.18;39.56;99600.00;1715619;83;22168;-71
2022/04/12 08:18:53;;;;;;;6.17;1.92;;;;;;;13.52;38.95;99598.09;1715548;83;21017;-71
2022/04/12 08:21:36;;;;;;;7.22;1.92;;;;;;;13.85;36.61;99602.39;1715521;83;21088;-70
2022/04/12 08:24:05;;;;;;;9.35;2.10;;;;;;;14.05;36.49;99591.91;1715410;82;21182;-71
2022/04/12 08:26:34;;;;;;;5.40;1.85;;;;;;;14.45;36.04;99606.25;1715722;82;21094;-70
2022/04/12 08:29:02;;;;;;;8.68;1.67;;;;;;;14.81;36.22;99599.63;1715361;83;21361;-70
2022/04/12 08:31:29;;;;;;;7.42;2.10;;;;;;;15.02;34.31;99599.22;1715267;83;21057;-72
2022/04/12 08:33:56;;;;;;;7.15;1.75;;;;;;;15.04;33.89;99592.02;1715521;83;20983;-71
2022/04/12 08:36:25;;;;;;;12.28;1.77;;;;;;;15.10;34.62;99591.63;1715440;81;21159;-69
2022/04/12 08:38:52;;;;;;;10.93;2.77;;;;;;;15.04;33.20;99591.54;1715618;83;21109;-70
2022/04/12 08:41:24;;;;;;;7.10;1.52;;;;;;;14.60;34.16;99595.68;1715889;83;21305;-71
2022/04/12 08:43:57;;;;;;;4.87;1.57;;;;;;;14.15;34.60;99610.74;1715447;82;21097;-70
2022/04/12 08:46:27;;;;;;;7.47;1.90;;;;;;;13.82;35.24;99606.03;1715491;83;21560;-71
2022/04/12 08:48:56;;;;;;;7.62;1.62;;;;;;;13.47;34.81;99601.48;1715387;83;21056;-71
2022/04/12 08:51:23;;;;;;;6.83;1.80;;;;;;;13.15;35.87;99593.55;1736383;82;21022;-70
2022/04/12 08:53:53;;;;;;;8.55;2.00;;;;;;;13.09;36.40;99600.97;1745291;82;21280;-71
2022/04/12 08:56:20;;;;;;;10.43;2.00;;;;;;;13.14;36.75;99602.91;1745321;82;21041;-71
2022/04/12 08:58:49;;;;;;;6.62;1.70;;;;;;;13.29;35.85;99594.59;1745343;82;21252;-70
2022/04/12 09:01:16;;;;;;;3.52;2.10;;;;;;;13.32;35.41;99601.90;1745002;82;21092;-70
2022/04/12 09:03:47;;;;;;;8.48;1.90;;;;;;;13.23;35.70;99591.81;1745156;82;21069;-69
2022/04/12 09:06:15;;;;;;;6.72;1.85;;;;;;;12.95;35.83;99595.13;1745290;82;21150;-71
2022/04/12 09:08:45;;;;;;;8.18;2.15;;;;;;;12.79;36.56;99601.27;1745240;80;21549;-71
2022/04/12 09:11:14;;;;;;;5.65;1.90;;;;;;;12.72;36.24;99595.06;1745305;82;21022;-71
2022/04/12 09:14:00;;;;;;;10.90;2.02;;;;;;;12.58;37.13;99576.88;1745157;82;21069;-70
2022/04/12 09:16:30;;;;;;;5.17;1.67;;;;;;;12.41;36.78;99587.95;1748718;81;21097;-71
2022/04/12 09:19:01;;;;;;;5.10;1.50;;;;;;;12.20;37.38;99570.98;1745258;82;21041;-71
2022/04/12 09:21:36;;;;;;;7.78;2.27;;;;;;;12.16;37.48;99568.11;1745400;82;21046;-70
2022/04/12 09:24:21;;;;;;;7.80;1.85;;;;;;;12.03;37.15;99574.96;1745322;82;21072;-71
2022/04/12 09:30:30;;;;;;;4.85;1.65;;;;;;;11.73;37.98;99566.33;1742517;82;21045;-72
2022/04/12 09:32:57;;;;;;;8.58;2.35;;;;;;;11.85;37.67;99571.48;1715454;83;21156;-70
2022/04/12 09:35:24;;;;;;;5.03;1.90;;;;;;;11.84;37.58;99570.59;1715322;83;22088;-70
2022/04/12 09:37:51;;;;;;;6.53;1.67;;;;;;;11.85;37.95;99575.44;1672134;83;21065;-71
2022/04/12 09:40:18;;;;;;;5.35;2.17;;;;;;;11.93;37.82;99552.16;1695507;83;21502;-72
2022/04/12 09:43:05;;;;;;;4.47;1.57;;;;;;;11.93;37.22;99554.33;1715486;83;21025;-71
2022/04/12 09:45:28;;;;;;;5.85;2.33;;;;;;;11.87;37.07;99575.77;1713834;83;21256;-71
2022/04/12 09:48:05;;;;;;;5.60;1.97;;;;;;;11.88;36.88;99576.14;1715469;83;21058;-70
2022/04/12 09:50:32;;;;;;;4.92;2.00;;;;;;;11.89;37.60;99573.91;1725700;82;22207;-71
2022/04/12 09:53:01;;;;;;;6.80;1.95;;;;;;;11.95;38.17;99583.28;1745467;82;21092;-71
2022/04/12 09:55:53;;;;;;;6.62;1.80;;;;;;;12.10;37.34;99573.70;1724485;82;21033;-70
2022/04/12 09:58:23;;;;;;;4.00;1.87;;;;;;;12.30;37.48;99586.72;1745017;82;21248;-71
2022/04/12 10:00:48;;;;;;;4.47;1.42;;;;;;;12.35;35.82;99584.70;1745156;82;21050;-71
2022/04/12 10:03:18;;;;;;;4.40;1.57;;;;;;;12.37;36.54;99593.84;1745119;82;21025;-71
2022/04/12 10:05:45;;;;;;;6.22;2.20;;;;;;;12.34;35.76;99595.34;1745484;82;21052;-71
2022/04/12 10:08:13;;;;;;;6.55;1.60;;;;;;;12.30;36.17;99613.12;1745332;82;21022;-70
2022/04/12 10:10:43;;;;;;;10.68;2.05;;;;;;;12.35;34.77;99612.44;1745560;82;21129;-70
2022/04/12 10:13:12;;;;;;;6.78;2.15;;;;;;;12.31;34.78;99614.00;1745234;82;22092;-71
2022/04/12 10:15:39;;;;;;;10.38;2.35;;;;;;;12.23;35.13;99614.38;1745436;82;21025;-70
2022/04/12 10:18:06;;;;;;;12.40;2.52;;;;;;;12.20;36.00;99610.59;1744924;82;21533;-74
2022/04/12 10:20:32;;;;;;;8.15;2.27;;;;;;;12.24;36.04;99610.82;1745091;82;21077;-72
2022/04/12 10:23:01;;;;;;;6.75;2.08;;;;;;;12.31;35.40;99617.48;1744880;82;21045;-71
2022/04/12 10:25:27;;;;;;;9.45;2.17;;;;;;;12.15;35.08;99601.59;1745479;82;21073;-70
2022/04/12 10:27:57;;;;;;;6.67;1.90;;;;;;;12.05;35.79;99610.05;1745300;82;21494;-70
2022/04/12 10:30:27;;;;;;;11.22;2.37;;;;;;;12.00;35.80;99611.60;1745366;82;21109;-70
2022/04/12 10:33:07;;;;;;;5.80;2.12;;;;;;;12.05;36.46;99596.85;1745217;82;21049;-70
2022/04/12 10:35:54;;;;;;;5.20;1.82;;;;;;;11.99;35.56;99595.39;1745472;82;21546;-71
2022/04/12 10:38:27;;;;;;;3.60;1.77;;;;;;;11.98;35.36;99592.83;1745123;82;21133;-72
2022/04/12 10:40:56;;;;;;;7.08;1.98;;;;;;;11.95;34.93;99578.85;1745592;82;21125;-73
2022/04/12 10:43:33;;;;;;;7.17;2.40;;;;;;;11.87;36.12;99602.16;1745567;82;21038;-71
2022/04/12 10:46:06;;;;;;;8.35;1.77;;;;;;;11.92;35.84;99585.62;1747225;81;21077;-71
2022/04/12 10:48:34;;;;;;;7.25;1.92;;;;;;;11.79;34.63;99608.71;1747972;82;21395;-72
2022/04/12 10:51:04;;;;;;;5.55;2.15;;;;;;;11.58;35.20;99602.73;1731392;82;21527;-71
2022/04/12 10:53:43;;;;;;;4.70;1.92;;;;;;;11.42;35.94;99614.02;1718152;83;21057;-71
2022/04/12 10:59:14;;;;;;;3.60;1.40;;;;;;;11.14;36.45;99617.13;1814544;79;28332;-71
2022/04/12 11:01:45;;;;;;;4.90;2.02;;;;;;;11.04;37.49;99616.72;1725211;81;21065;-70
2022/04/12 11:04:15;;;;;;;10.93;2.25;;;;;;;11.01;37.60;99603.67;1723222;83;21220;-71
2022/04/12 11:06:46;;;;;;;8.70;2.08;;;;;;;11.09;37.04;99608.59;1724156;81;21136;-71
2022/04/12 11:09:16;;;;;;;5.65;1.90;;;;;;;11.19;36.51;99603.73;1753202;81;21011;-71
2022/04/12 11:11:45;;;;;;;4.67;2.08;;;;;;;11.46;36.30;99598.45;1740696;82;21091;-71
2022/04/12 11:14:38;;;;;;;7.53;1.98;;;;;;;11.62;36.15;99598.55;1737616;82;20996;-71
2022/04/12 11:17:10;;;;;;;4.50;1.80;;;;;;;11.77;35.17;99592.95;1737244;82;21230;-70
2022/04/12 11:19:45;;;;;;;4.72;1.67;;;;;;;11.64;36.01;99605.04;1737428;82;21074;-71
2022/04/12 11:22:14;;;;;;;6.80;2.50;;;;;;;11.54;35.85;99600.22;1737175;82;21636;-71
2022/04/12 11:24:41;;;;;;;5.60;1.62;;;;;;;11.36;35.98;99609.03;1737121;82;21068;-71
2022/04/12 11:27:12;;;;;;;5.30;1.92;;;;;;;11.19;36.70;99617.77;1737358;82;21568;-71
2022/04/12 11:29:42;;;;;;;3.12;1.70;;;;;;;11.16;37.00;99610.02;1737453;82;21117;-70
2022/04/12 11:32:10;;;;;;;4.85;1.75;;;;;;;11.22;36.38;99616.76;1737451;82;21020;-71
2022/04/12 11:34:39;;;;;;;4.28;1.52;;;;;;;11.27;36.80;99617.38;1737342;82;21541;-71
2022/04/12 11:37:11;;;;;;;4.17;1.37;;;;;;;11.34;36.64;99608.25;1737517;82;21201;-71
2022/04/12 11:39:43;;;;;;;5.40;1.80;;;;;;;11.38;36.28;99612.92;1737444;82;21025;-71
2022/04/12 11:42:14;;;;;;;8.00;2.00;;;;;;;11.33;36.27;99618.42;1737995;82;21824;-71
2022/04/12 11:44:52;;;;;;;4.30;1.87;;;;;;;11.27;35.98;99614.75;1737446;82;21045;-71
2022/04/12 11:47:19;;;;;;;23.92;2.55;;;;;;;11.23;35.86;99605.30;1728176;82;21529;-70
2022/04/12 12:01:36;;;;;;;5.33;1.82;;;;;;;11.35;35.69;99624.47;1790673;78;22661;-71
2022/04/12 12:04:07;;;;;;;3.83;1.67;;;;;;;11.24;35.83;99642.58;1752767;81;21016;-71
2022/04/12 12:07:00;;;;;;;5.00;1.72;;;;;;;11.12;35.63;99640.91;1752702;81;21084;-70
2022/04/12 12:09:27;;;;;;;11.48;2.77;;;;;;;10.97;35.13;99632.40;1752990;81;21033;-71